Monday, December 18, 2017, 3:30 PM EST
Back to Local

KSNC, Chester, Chester Airport

Location: Chester, CT, United States Lat: 41.384
Local Time: 3:30 PM EST (20:30 GMT) Lon: -72.506
Time Zone: US/Eastern Elev: 416 ft

Show me the last for .
Show Coded

Time T Td Feel RH Dir Speed Gust Alt SLP Vis Weather Sky Remarks
2017-12-18 14:55 37 28 34 69 350° 5 - 29.96 - 10 OVC005 None
2017-12-18 14:35 37 30 34 74 10° 5 - 29.96 - 10 BKN005 OVC008 None
2017-12-18 14:15 37 30 35 74 10° 3 - 29.96 - 10 BKN004 OVC009 None
2017-12-18 13:55 37 28 - 69 - Calm - 29.96 - 10 OVC004 None
2017-12-18 13:35 36 30 - 80 - Calm - 29.98 - 10 OVC005 None
2017-12-18 12:55 36 30 - 80 - Calm - 30.01 - 8 OVC005 None
2017-12-18 12:35 36 28 - 74 - Calm - 30.02 - 3 HZ OVC005 None
2017-12-18 12:15 36 27 33 69 330° 3 - 30.03 - 3 HZ BKN008 OVC011 None
2017-12-18 11:55 36 25 - 64 - Calm - 30.03 - 10 BKN011 BKN015 OVC024 None
2017-12-18 11:35 36 25 - 64 - Calm - 30.04 - 10 FEW014 BKN025 OVC029 None
2017-12-18 11:15 36 23 - 59 - Calm - 30.05 - 10 SCT015 OVC030 None
2017-12-18 10:55 36 23 - 59 - Calm - 30.06 - 10 OVC015 None
2017-12-18 10:35 34 21 31 59 30° 3 - 30.08 - 10 OVC016 None
2017-12-18 10:15 34 21 - 59 - Calm - 30.09 - 10 OVC015 None
2017-12-18 09:55 34 19 - 55 - Calm - 30.09 - 10 OVC016 None
2017-12-18 09:35 32 19 - 59 - Calm - 30.11 - 10 OVC016 None
2017-12-18 09:15 32 18 - 54 - Calm - 30.12 - 10 OVC017 None
2017-12-18 08:55 30 18 - 58 - Calm - 30.12 - 10 OVC021 None
2017-12-18 08:35 30 16 - 54 - Calm - 30.12 - 10 SCT017 BKN022 OVC046 None
2017-12-18 08:15 30 16 - 54 - Calm - 30.12 - 10 FEW021 OVC036 None
2017-12-18 07:55 28 14 - 54 - Calm - 30.13 - 10 FEW019 BKN033 BKN040 None
2017-12-18 07:35 28 14 - 54 - Calm - 30.14 - 10 FEW019 BKN035 OVC040 None
2017-12-18 07:15 28 14 - 54 - Calm - 30.14 - 10 FEW019 SCT040 None
2017-12-18 06:55 28 12 - 50 - Calm - 30.15 - 10 -SN BKN019 BKN038 None
2017-12-18 06:35 28 10 - 46 - Calm - 30.15 - 10 OVC019 None
2017-12-18 06:15 28 10 - 46 - Calm - 30.14 - 10 OVC019 None
2017-12-18 05:55 28 10 - 46 - Calm - 30.14 - 10 OVC019 None
2017-12-18 05:35 28 10 - 46 - Calm - 30.15 - 10 -SN OVC020 None
2017-12-18 05:15 28 9 - 42 - Calm - 30.15 - 10 OVC019 None
2017-12-18 04:55 28 9 - 42 - Calm - 30.16 - 10 -SN OVC020 None
2017-12-18 04:35 28 9 - 42 - Calm - 30.16 - 10 OVC019 None
2017-12-18 04:15 28 9 - 42 - Calm - 30.16 - 10 OVC019 None
2017-12-18 03:55 28 10 - 46 - Calm - 30.17 - 10 OVC019 None
2017-12-18 03:35 28 10 - 46 - Calm - 30.18 - 10 OVC020 None
2017-12-18 03:15 28 10 - 46 - Calm - 30.18 - 10 OVC019 None
2017-12-18 02:55 28 9 25 42 50° 3 - 30.18 - 10 OVC018 None
2017-12-18 02:35 28 10 - 46 - Calm - 30.18 - 10 OVC019 None
2017-12-18 02:15 28 10 - 46 - Calm - 30.18 - 10 OVC018 None
2017-12-18 01:55 28 10 - 46 - Calm - 30.19 - 10 OVC019 None
2017-12-18 01:35 28 12 - 50 - - - 30.20 - 10 OVC019 None
2017-12-18 01:15 28 10 - 46 - Calm - 30.19 - 10 OVC019 None
2017-12-18 00:55 28 10 - 46 - Calm - 30.19 - 10 OVC022 None
2017-12-18 00:35 28 10 - 46 - Calm - 30.19 - 10 SCT025 SCT110 None
2017-12-18 00:15 28 10 - 46 - Calm - 30.20 - 10 SCT110 None
2017-12-17 23:55 28 9 25 42 60° 3 - 30.20 - 10 CLR None
2017-12-17 23:35 28 10 23 46 50° 5 - 30.21 - 10 FEW060 None
2017-12-17 23:15 28 9 23 42 40° 5 - 30.22 - 10 FEW040 None
2017-12-17 22:55 28 10 - 46 - Calm - 30.23 - 10 CLR None
2017-12-17 22:35 28 14 - 54 - Calm - 30.23 - 10 None
2017-12-17 22:15 28 10 - 46 - Calm - 30.23 - 10 CLR None
2017-12-17 21:55 30 10 - 42 - Calm - 30.24 - 10 CLR None
2017-12-17 21:35 30 9 - 39 - Calm - 30.24 - 10 CLR None
2017-12-17 20:55 28 9 - 42 - Calm - 30.26 - 10 CLR None
2017-12-17 20:35 28 9 - 42 - Calm - 30.25 - 10 CLR None
2017-12-17 20:15 28 9 23 42 10° 5 - 30.26 - 10 CLR None
2017-12-17 19:55 28 10 - 46 - Calm - 30.26 - 10 CLR None
2017-12-17 19:35 28 7 - 39 - Calm - 30.26 - 10 CLR None
2017-12-17 19:15 28 7 - 39 - Calm - 30.25 - 10 CLR None
2017-12-17 18:55 28 9 - 42 - - - 30.26 - 10 CLR None
2017-12-17 18:35 28 7 - 39 - Calm - 30.25 - 10 CLR None
2017-12-17 18:15 28 7 - 39 - Calm - 30.24 - 10 CLR None
2017-12-17 17:55 28 9 - 42 - Calm - 30.25 - 10 CLR None
2017-12-17 17:35 28 9 - 42 - Calm - 30.24 - 10 CLR None
2017-12-17 17:15 28 9 - 42 - Calm - 30.23 - 10 CLR None
2017-12-17 16:55 30 9 - 39 - - - 30.23 - 10 CLR None
2017-12-17 16:35 30 9 - 39 - Calm - 30.23 - 10 CLR None
2017-12-17 16:15 30 9 - 39 - Calm - 30.23 - 10 CLR None
2017-12-17 15:55 30 10 - 42 - Calm - 30.23 - 10 CLR None
2017-12-17 15:35 30 9 - 39 - Calm - 30.22 - 10 CLR None

Support USWX by starting your Amazon purchase here.